Schedule Details


Flight Number: CTN301
Departure: Eleftherios Venizelos Intl (LGAV) at 19:50
Arrival: Cilipi (LDDU) at 20:20
Route: RIMAX UL613 XANIS L613 YNN UL611 VAKSU L611 LOKRU

Weather Information
LGAV 092350Z 34006KT CAVOK 14/M02 Q1017 NOSIG
LDDU 100000Z VRB04KT CAVOK 16/M01 Q1019
Schedule Frequency

Route Map